createdAt,value
2023-02-21T05:00:40.415Z,22.68
2023-02-21T05:03:07.667Z,22.51
2023-02-21T05:05:34.389Z,22.27
2023-02-21T05:08:01.036Z,22.34
2023-02-21T05:10:43.536Z,22.69
2023-02-21T05:13:24.951Z,22.31
2023-02-21T05:15:51.577Z,22.69
2023-02-21T05:18:23.266Z,22.69
2023-02-21T05:20:50.161Z,22.71
2023-02-21T05:23:18.958Z,22.69
2023-02-21T05:25:45.502Z,22.68
2023-02-21T05:28:12.119Z,22.68
2023-02-21T05:30:38.718Z,22.67
2023-02-21T05:33:05.278Z,22.68
2023-02-21T05:35:31.852Z,22.59
2023-02-21T05:38:01.462Z,22.66
2023-02-21T05:40:28.012Z,22.69
2023-02-21T05:42:54.561Z,22.58
2023-02-21T05:45:21.207Z,22.69
2023-02-21T05:47:47.749Z,22.69
2023-02-21T05:50:14.307Z,22.59
2023-02-21T05:52:40.893Z,22.65
2023-02-21T05:55:07.585Z,22.65
2023-02-21T05:57:38.721Z,22.66
2023-02-21T06:00:05.780Z,22.68
2023-02-21T06:02:38.558Z,22.65
2023-02-21T06:05:05.422Z,22.63
2023-02-21T06:07:31.932Z,22.62
2023-02-21T06:09:58.470Z,22.61
2023-02-21T06:12:25.004Z,22.63
2023-02-21T06:14:51.539Z,22.53
2023-02-21T06:17:18.097Z,22.63
2023-02-21T06:19:44.654Z,22.64
2023-02-21T06:22:11.145Z,22.62
2023-02-21T06:24:37.713Z,22.61
2023-02-21T06:27:04.331Z,22.61
2023-02-21T06:29:30.849Z,22.61
2023-02-21T06:31:58.720Z,22.61
2023-02-21T06:34:25.858Z,22.48
2023-02-21T06:36:53.206Z,22.60
2023-02-21T06:39:19.686Z,22.59
2023-02-21T06:41:46.236Z,22.60
2023-02-21T06:44:12.802Z,22.59
2023-02-21T06:46:39.576Z,22.59
2023-02-21T06:49:06.208Z,22.59
2023-02-21T06:51:37.023Z,22.58
2023-02-21T06:54:03.812Z,22.58
2023-02-21T06:56:30.741Z,22.58
2023-02-21T06:58:57.679Z,22.55
2023-02-21T07:01:28.263Z,22.60
2023-02-21T07:03:55.697Z,22.59
2023-02-21T07:06:22.309Z,22.55
2023-02-21T07:08:49.029Z,22.59
2023-02-21T07:11:16.065Z,22.57
2023-02-21T07:13:47.333Z,22.52
2023-02-21T07:16:14.487Z,22.59
2023-02-21T07:18:41.087Z,22.48
2023-02-21T07:21:07.737Z,22.61
2023-02-21T07:23:34.258Z,22.63
2023-02-21T07:26:00.877Z,22.64
2023-02-21T07:28:27.403Z,22.63
2023-02-21T07:30:53.993Z,22.63
2023-02-21T07:33:20.609Z,22.66
2023-02-21T07:35:47.272Z,22.64
2023-02-21T07:38:27.164Z,22.64
2023-02-21T07:40:57.632Z,22.62
2023-02-21T07:43:25.289Z,22.64
2023-02-21T07:45:51.896Z,22.66
2023-02-21T07:48:18.482Z,22.65
2023-02-21T07:50:45.525Z,22.64
2023-02-21T07:53:12.123Z,22.68
2023-02-21T07:55:38.765Z,22.66
2023-02-21T07:58:05.384Z,22.64
2023-02-21T08:00:32.118Z,22.66
2023-02-21T08:02:59.007Z,22.62
2023-02-21T08:05:25.563Z,22.62
2023-02-21T08:07:52.223Z,22.63
2023-02-21T08:10:22.239Z,22.66
2023-02-21T08:12:48.838Z,22.51
2023-02-21T08:15:15.453Z,22.65
2023-02-21T08:17:42.068Z,22.65
2023-02-21T08:20:09.955Z,22.65
2023-02-21T08:22:37.112Z,22.66
2023-02-21T08:25:03.763Z,22.63
2023-02-21T08:27:30.343Z,22.67
2023-02-21T08:29:56.997Z,22.57
2023-02-21T08:32:23.695Z,22.59
2023-02-21T08:34:50.368Z,22.63
2023-02-21T08:37:20.679Z,22.63
2023-02-21T08:39:47.870Z,22.63
2023-02-21T08:42:17.418Z,22.62
2023-02-21T08:44:45.126Z,22.63
2023-02-21T08:47:14.856Z,22.61
2023-02-21T08:49:47.381Z,22.68
2023-02-21T08:52:16.557Z,22.68
2023-02-21T08:54:43.772Z,22.67
2023-02-21T08:57:10.403Z,22.66
2023-02-21T08:59:42.546Z,22.62
2023-02-21T09:02:16.493Z,22.66
2023-02-21T09:04:43.410Z,22.63
2023-02-21T09:07:11.683Z,22.62
2023-02-21T09:09:38.540Z,22.54
2023-02-21T09:12:08.432Z,22.60
2023-02-21T09:14:35.888Z,22.60
2023-02-21T09:17:03.582Z,22.62
2023-02-21T09:19:30.138Z,22.61
2023-02-21T09:21:56.759Z,22.62
2023-02-21T09:24:27.916Z,22.31
2023-02-21T09:26:55.236Z,22.62
2023-02-21T09:29:21.975Z,22.65
2023-02-21T09:31:49.425Z,22.68
2023-02-21T09:34:16.270Z,22.72
2023-02-21T09:36:42.934Z,22.77
2023-02-21T09:39:09.614Z,22.82
2023-02-21T09:41:36.421Z,22.85
2023-02-21T09:44:04.154Z,22.89
2023-02-21T09:46:33.599Z,22.92
2023-02-21T09:49:00.564Z,22.95
2023-02-21T09:51:27.268Z,22.97
2023-02-21T09:53:54.899Z,22.89
2023-02-21T09:56:40.037Z,23.03
2023-02-21T09:59:15.778Z,23.11
2023-02-21T10:02:03.386Z,23.16
2023-02-21T10:04:42.160Z,23.17
2023-02-21T10:07:19.327Z,23.10
2023-02-21T10:09:51.973Z,23.23
2023-02-21T10:12:34.245Z,23.27
2023-02-21T10:15:38.541Z,23.32
2023-02-21T10:18:26.852Z,23.40
2023-02-21T10:20:57.662Z,23.26
2023-02-21T10:23:32.718Z,23.42
2023-02-21T10:26:07.354Z,23.42
2023-02-21T10:28:34.054Z,23.45
2023-02-21T10:31:03.377Z,23.49
2023-02-21T10:33:37.705Z,23.56
2023-02-21T10:36:20.170Z,23.58
2023-02-21T10:38:53.867Z,23.62
2023-02-21T10:41:20.519Z,23.61
2023-02-21T10:43:50.481Z,23.67
2023-02-21T10:46:21.802Z,23.71
2023-02-21T10:48:53.178Z,23.74
2023-02-21T10:51:33.656Z,23.76
2023-02-21T10:54:23.401Z,23.84
2023-02-21T10:56:51.371Z,23.84
2023-02-21T10:59:27.720Z,23.88
2023-02-21T11:01:54.393Z,23.93
2023-02-21T11:04:20.821Z,23.97
2023-02-21T11:06:49.371Z,24.00
2023-02-21T11:09:24.042Z,24.09
2023-02-21T11:12:05.720Z,24.04
2023-02-21T11:14:33.908Z,24.03
2023-02-21T11:17:19.479Z,24.19
2023-02-21T11:19:53.216Z,24.19
2023-02-21T11:22:21.637Z,24.23
2023-02-21T11:24:59.712Z,24.25
2023-02-21T11:27:27.121Z,24.30
2023-02-21T11:29:53.737Z,24.20
2023-02-21T11:32:27.578Z,24.29
2023-02-21T11:35:03.587Z,24.19
2023-02-21T11:37:32.027Z,24.41
2023-02-21T11:40:00.929Z,24.44
2023-02-21T11:42:32.791Z,24.46
2023-02-21T11:45:29.572Z,24.53
2023-02-21T11:47:59.252Z,24.50
2023-02-21T11:50:28.205Z,24.35
2023-02-21T11:53:04.393Z,24.62
2023-02-21T11:55:30.986Z,24.62
2023-02-21T11:58:12.351Z,24.67
2023-02-21T12:01:02.426Z,24.71
2023-02-21T12:03:51.461Z,24.74
2023-02-21T12:06:39.363Z,24.76
2023-02-21T12:09:12.988Z,24.79
2023-02-21T12:12:17.751Z,24.85
2023-02-21T12:14:46.697Z,24.84
2023-02-21T12:17:22.348Z,24.88
2023-02-21T12:20:22.409Z,24.94
2023-02-21T12:23:26.821Z,24.98
2023-02-21T12:26:15.463Z,24.94
2023-02-21T12:28:59.637Z,24.92
2023-02-21T12:31:35.733Z,25.02
2023-02-21T12:34:26.504Z,25.10
2023-02-21T12:37:08.749Z,25.10
2023-02-21T12:40:14.061Z,25.15
2023-02-21T12:42:43.180Z,25.15
2023-02-21T12:45:42.716Z,25.17
2023-02-21T12:48:23.271Z,25.21
2023-02-21T12:50:55.047Z,25.20
2023-02-21T12:53:43.987Z,25.22
2023-02-21T12:56:25.241Z,25.28
2023-02-21T12:59:04.621Z,25.20
2023-02-21T13:01:32.710Z,25.29
2023-02-21T13:04:34.248Z,25.34
2023-02-21T13:07:25.424Z,25.31
2023-02-21T13:10:03.659Z,25.37
2023-02-21T13:12:39.767Z,25.41
2023-02-21T13:15:18.322Z,25.41
2023-02-21T13:17:48.858Z,25.45
2023-02-21T13:20:17.953Z,25.48
2023-02-21T13:23:40.714Z,25.53
2023-02-21T13:26:25.825Z,25.56
2023-02-21T13:28:56.110Z,25.54
2023-02-21T13:31:38.199Z,25.56
2023-02-21T13:34:09.634Z,25.58
2023-02-21T13:36:39.284Z,25.58
2023-02-21T13:39:08.545Z,25.59
2023-02-21T13:41:46.679Z,25.57
2023-02-21T13:44:19.392Z,25.63
2023-02-21T13:46:46.110Z,25.62
2023-02-21T13:49:41.437Z,25.70
2023-02-21T13:52:20.195Z,25.70
2023-02-21T13:55:11.495Z,25.71
2023-02-21T13:57:40.006Z,25.71
2023-02-21T14:00:24.774Z,25.74
2023-02-21T14:03:18.206Z,25.77
2023-02-21T14:05:44.903Z,25.83
2023-02-21T14:08:26.890Z,25.80
2023-02-21T14:11:00.873Z,25.80
2023-02-21T14:13:36.559Z,25.80
2023-02-21T14:16:12.257Z,25.83
2023-02-21T14:18:38.899Z,25.82
2023-02-21T14:21:33.989Z,25.87
2023-02-21T14:24:09.015Z,25.84
2023-02-21T14:27:05.297Z,25.86
2023-02-21T14:29:38.801Z,25.85
2023-02-21T14:32:08.591Z,25.88
2023-02-21T14:34:50.145Z,25.88
2023-02-21T14:37:19.575Z,25.88
2023-02-21T14:39:53.414Z,25.86
2023-02-21T14:42:44.688Z,25.88
2023-02-21T14:45:11.119Z,25.91
2023-02-21T14:48:08.300Z,25.94
2023-02-21T14:51:05.305Z,25.95
2023-02-21T14:53:52.313Z,25.91
2023-02-21T14:56:32.889Z,25.86
2023-02-21T14:59:21.327Z,25.88
2023-02-21T15:02:25.697Z,25.95
2023-02-21T15:05:12.186Z,25.94
2023-02-21T15:07:50.374Z,25.89
2023-02-21T15:10:16.881Z,25.89
2023-02-21T15:12:46.446Z,25.88
2023-02-21T15:15:38.586Z,25.91
2023-02-21T15:18:13.083Z,25.82
2023-02-21T15:20:41.026Z,25.82
2023-02-21T15:23:20.817Z,25.87
2023-02-21T15:25:54.532Z,25.88
2023-02-21T15:28:23.625Z,25.64
2023-02-21T15:31:02.482Z,25.83
2023-02-21T15:33:43.094Z,25.83
2023-02-21T15:36:23.430Z,25.80
2023-02-21T15:39:04.114Z,25.75
2023-02-21T15:41:42.806Z,25.73
2023-02-21T15:44:24.171Z,25.67
2023-02-21T15:46:57.744Z,25.58
2023-02-21T15:49:30.442Z,25.63
2023-02-21T15:51:57.038Z,25.56
2023-02-21T15:54:29.922Z,25.54
2023-02-21T15:57:07.334Z,25.61
2023-02-21T15:59:35.139Z,25.56
2023-02-21T16:02:17.117Z,25.53
2023-02-21T16:04:48.412Z,25.47
2023-02-21T16:07:16.572Z,25.43
2023-02-21T16:09:46.579Z,25.17
2023-02-21T16:12:13.049Z,25.40
2023-02-21T16:14:47.333Z,25.38
2023-02-21T16:17:13.851Z,25.35
2023-02-21T16:19:49.288Z,25.30
2023-02-21T16:22:26.434Z,25.30
2023-02-21T16:25:13.060Z,25.26
2023-02-21T16:27:40.826Z,25.23
2023-02-21T16:30:11.182Z,25.23
2023-02-21T16:32:39.253Z,25.11
2023-02-21T16:35:06.239Z,25.13
2023-02-21T16:37:32.832Z,25.13
2023-02-21T16:40:00.547Z,25.13
2023-02-21T16:42:27.167Z,25.12
2023-02-21T16:44:54.208Z,25.08
2023-02-21T16:47:21.026Z,24.99
2023-02-21T16:49:47.686Z,24.98
2023-02-21T16:52:14.648Z,25.02
2023-02-21T16:54:41.312Z,25.00
2023-02-21T16:57:07.858Z,24.97
2023-02-21T16:59:34.473Z,24.88
2023-02-21T17:02:01.947Z,24.92
2023-02-21T17:04:29.639Z,24.86
2023-02-21T17:07:03.861Z,24.89
2023-02-21T17:09:33.380Z,24.85
2023-02-21T17:12:00.747Z,24.85
2023-02-21T17:14:27.340Z,24.84
2023-02-21T17:16:53.988Z,24.82
2023-02-21T17:19:21.194Z,24.76
2023-02-21T17:21:47.911Z,24.78
2023-02-21T17:24:14.704Z,24.78
2023-02-21T17:26:41.459Z,24.73
2023-02-21T17:29:08.354Z,24.72
2023-02-21T17:31:35.120Z,24.70
2023-02-21T17:34:01.802Z,24.68
2023-02-21T17:36:28.577Z,24.63
2023-02-21T17:38:56.650Z,24.64
2023-02-21T17:41:24.490Z,24.64
2023-02-21T17:43:51.067Z,24.63
2023-02-21T17:46:18.514Z,24.61
2023-02-21T17:48:45.107Z,24.45
2023-02-21T17:51:22.669Z,24.61
2023-02-21T17:53:49.396Z,24.58
2023-02-21T17:56:20.259Z,24.57
2023-02-21T17:58:46.974Z,24.56
2023-02-21T18:01:18.701Z,24.57
2023-02-21T18:03:47.079Z,24.52
2023-02-21T18:06:14.463Z,24.54
2023-02-21T18:08:41.079Z,24.53
2023-02-21T18:11:11.639Z,24.52
2023-02-21T18:13:38.346Z,24.50
2023-02-21T18:16:05.407Z,24.49
2023-02-21T18:18:32.780Z,24.48
2023-02-21T18:20:59.777Z,24.36
2023-02-21T18:23:26.825Z,24.36
2023-02-21T18:25:53.451Z,24.44
2023-02-21T18:28:20.080Z,24.43
2023-02-21T18:30:48.329Z,24.42
2023-02-21T18:33:14.983Z,24.31
2023-02-21T18:35:42.628Z,24.39
2023-02-21T18:38:09.272Z,24.39
2023-02-21T18:40:37.776Z,24.38
2023-02-21T18:43:06.021Z,24.36
2023-02-21T18:45:34.136Z,24.34
2023-02-21T18:48:01.276Z,24.33
2023-02-21T18:50:27.856Z,24.34
2023-02-21T18:52:54.529Z,24.33
2023-02-21T18:55:21.073Z,24.31
2023-02-21T18:57:47.952Z,24.28
2023-02-21T19:00:16.843Z,24.28
2023-02-21T19:02:43.420Z,24.26
2023-02-21T19:05:18.284Z,24.26
2023-02-21T19:07:44.931Z,24.24
2023-02-21T19:10:12.851Z,24.23
2023-02-21T19:12:39.441Z,24.19
2023-02-21T19:15:06.166Z,24.21
2023-02-21T19:17:33.475Z,24.21
2023-02-21T19:20:00.227Z,24.21
2023-02-21T19:22:27.171Z,24.20
2023-02-21T19:24:53.837Z,24.19
2023-02-21T19:27:20.483Z,24.19
2023-02-21T19:29:47.438Z,24.17
2023-02-21T19:32:14.313Z,24.17
2023-02-21T19:34:41.038Z,24.13
2023-02-21T19:37:09.492Z,24.16
2023-02-21T19:39:36.661Z,24.15
2023-02-21T19:42:03.677Z,24.16
2023-02-21T19:44:30.337Z,24.12
2023-02-21T19:46:57.229Z,24.11
2023-02-21T19:49:24.163Z,24.04
2023-02-21T19:51:52.279Z,24.07
2023-02-21T19:54:21.039Z,24.10
2023-02-21T19:56:47.817Z,24.08
2023-02-21T19:59:14.536Z,24.09
2023-02-21T20:01:41.215Z,24.08
2023-02-21T20:04:08.107Z,24.02
2023-02-21T20:06:36.217Z,24.04
2023-02-21T20:09:04.261Z,24.03
2023-02-21T20:11:30.999Z,23.99
2023-02-21T20:14:00.471Z,24.01
2023-02-21T20:16:28.203Z,23.99
2023-02-21T20:18:57.252Z,24.00
2023-02-21T20:21:26.888Z,23.98
2023-02-21T20:23:54.214Z,23.97
2023-02-21T20:26:23.293Z,23.98
2023-02-21T20:28:52.614Z,23.96
2023-02-21T20:31:20.544Z,23.96
2023-02-21T20:33:47.770Z,23.96
2023-02-21T20:36:14.675Z,23.94
2023-02-21T20:38:41.343Z,23.92
2023-02-21T20:41:10.968Z,23.91
2023-02-21T20:43:37.673Z,23.90
2023-02-21T20:46:04.740Z,23.87
2023-02-21T20:48:32.369Z,23.89
2023-02-21T20:51:02.743Z,23.87
2023-02-21T20:53:29.574Z,23.86
2023-02-21T20:55:56.416Z,23.83
2023-02-21T20:58:23.366Z,23.86
2023-02-21T21:00:50.138Z,23.86
2023-02-21T21:04:48.608Z,23.86
2023-02-21T21:07:21.394Z,23.74
2023-02-21T21:09:48.795Z,23.83
2023-02-21T21:12:18.010Z,23.82
2023-02-21T21:14:45.370Z,23.75
2023-02-21T21:17:15.036Z,23.80
2023-02-21T21:19:42.814Z,23.78
2023-02-21T21:22:11.183Z,23.79
2023-02-21T21:24:38.179Z,23.73
2023-02-21T21:27:08.629Z,23.72
2023-02-21T21:29:42.324Z,23.76
2023-02-21T21:32:10.159Z,23.76
2023-02-21T21:34:38.994Z,23.72
2023-02-21T21:37:05.695Z,23.75
2023-02-21T21:39:35.335Z,23.71
2023-02-21T21:42:05.602Z,23.67
2023-02-21T21:44:32.617Z,23.68
2023-02-21T21:47:02.210Z,23.71
2023-02-21T21:49:33.551Z,23.70
2023-02-21T21:52:00.396Z,23.72
2023-02-21T21:54:27.267Z,23.69
2023-02-21T21:56:55.112Z,23.67
2023-02-21T21:59:23.842Z,23.64
2023-02-21T22:01:51.254Z,23.63
2023-02-21T22:04:19.153Z,23.48
2023-02-21T22:06:46.052Z,23.54
2023-02-21T22:09:16.001Z,23.60
2023-02-21T22:11:44.214Z,23.56
2023-02-21T22:14:11.271Z,23.55
2023-02-21T22:16:39.157Z,23.57
2023-02-21T22:19:05.851Z,23.39
2023-02-21T22:21:32.570Z,23.50
2023-02-21T22:23:59.555Z,23.33
2023-02-21T22:26:27.245Z,23.51
2023-02-21T22:28:54.034Z,23.36
